Time;durP1;ratioP1;P1;durP2;ratioP2;P2;SDS_P1;SDS_P2;PMS_P1;PMS_P2;Temp;Humidity;BMP_temperature;BMP_pressure;BME280_temperature;BME280_humidity;BME280_pressure;Samples;Min_cycle;Max_cycle;Signal;HPM_P1;HPM_P2
2022/11/09 00:00:36;;;;;;;4.35;3.95;;;12.90;99.90;;;;;;4994343;28;20516;-65
2022/11/09 00:03:01;;;;;;;6.00;4.27;;;12.90;99.90;;;;;;5002092;28;20530;-65
2022/11/09 00:05:27;;;;;;;4.90;3.60;;;12.80;99.90;;;;;;4996714;28;20201;-64
2022/11/09 00:07:53;;;;;;;4.57;3.33;;;12.80;99.90;;;;;;5003707;28;20183;-65
2022/11/09 00:10:18;;;;;;;4.30;3.43;;;13.10;99.90;;;;;;5005961;28;20219;-65
2022/11/09 00:12:44;;;;;;;5.80;4.40;;;13.10;99.90;;;;;;5004251;28;20571;-65
2022/11/09 00:15:10;;;;;;;5.00;4.10;;;13.00;99.90;;;;;;5006763;28;20293;-64
2022/11/09 00:17:36;;;;;;;4.10;3.65;;;13.00;99.90;;;;;;4994392;28;20278;-64
2022/11/09 00:20:01;;;;;;;4.23;3.80;;;13.00;99.90;;;;;;4992556;28;20665;-65
2022/11/09 00:22:27;;;;;;;6.60;4.20;;;12.90;99.90;;;;;;4994124;28;20183;-65
2022/11/09 00:24:52;;;;;;;3.73;3.30;;;13.00;99.90;;;;;;4985586;28;20274;-64
2022/11/09 00:27:18;;;;;;;4.40;3.20;;;13.30;99.90;;;;;;4993967;28;20180;-65
2022/11/09 00:29:44;;;;;;;3.83;3.43;;;13.00;99.90;;;;;;4996167;28;20226;-65
2022/11/09 00:32:09;;;;;;;3.90;3.60;;;13.20;99.90;;;;;;4999259;28;20660;-66
2022/11/09 00:34:35;;;;;;;5.97;3.70;;;13.20;99.90;;;;;;4989240;28;20187;-65
2022/11/09 00:37:00;;;;;;;5.90;4.33;;;13.10;99.90;;;;;;4996204;28;20200;-64
2022/11/09 00:39:26;;;;;;;3.50;3.20;;;13.10;99.90;;;;;;5003026;28;20617;-64
2022/11/09 00:41:52;;;;;;;4.30;3.60;;;13.30;99.90;;;;;;5011390;28;20214;-65
2022/11/09 00:44:17;;;;;;;3.30;3.00;;;13.00;99.90;;;;;;4993175;28;20267;-64
2022/11/09 00:46:43;;;;;;;5.87;3.47;;;13.00;99.90;;;;;;5006467;28;20624;-64
2022/11/09 00:49:08;;;;;;;4.43;3.10;;;12.90;99.90;;;;;;5005270;28;20214;-65
2022/11/09 00:51:34;;;;;;;4.10;3.23;;;13.20;99.90;;;;;;5006127;28;20219;-65
2022/11/09 00:54:00;;;;;;;3.67;3.37;;;13.00;99.90;;;;;;4997796;28;20545;-64
2022/11/09 00:56:25;;;;;;;5.00;3.13;;;13.10;99.90;;;;;;4996260;28;20199;-65
2022/11/09 00:58:54;;;;;;;3.93;3.37;;;13.50;99.90;;;;;;5005487;28;20211;-65
2022/11/09 01:01:20;;;;;;;3.50;3.20;;;13.40;99.90;;;;;;4993615;28;20188;-65
2022/11/09 01:03:46;;;;;;;4.40;4.00;;;13.30;99.90;;;;;;5010042;28;20187;-64
2022/11/09 01:06:22;;;;;;;4.40;3.27;;;13.00;99.90;;;;;;5005414;28;20595;-65
2022/11/09 01:08:48;;;;;;;3.38;3.08;;;13.30;99.90;;;;;;5004114;28;20242;-65
2022/11/09 01:11:16;;;;;;;3.90;3.40;;;13.20;99.90;;;;;;5005143;28;20229;-65
2022/11/09 01:13:42;;;;;;;3.50;3.20;;;13.10;99.90;;;;;;5000832;28;20602;-65
2022/11/09 01:16:14;;;;;;;5.83;3.70;;;13.20;99.90;;;;;;4999249;28;20230;-65
2022/11/09 01:18:40;;;;;;;5.57;3.97;;;13.30;99.90;;;;;;4997013;28;20961;-65
2022/11/09 01:21:08;;;;;;;3.57;3.17;;;13.20;99.90;;;;;;4996270;28;20215;-64
2022/11/09 01:23:34;;;;;;;3.90;3.50;;;13.20;99.90;;;;;;4996755;28;20457;-65
2022/11/09 01:26:03;;;;;;;4.00;3.70;;;13.20;99.90;;;;;;5001484;28;20207;-66
2022/11/09 01:28:29;;;;;;;4.25;3.10;;;13.20;99.90;;;;;;4998198;28;20281;-65
2022/11/09 01:30:59;;;;;;;5.17;3.80;;;13.10;99.90;;;;;;5008806;28;20643;-64
2022/11/09 01:33:25;;;;;;;3.90;3.50;;;13.40;99.90;;;;;;5011548;28;20232;-65
2022/11/09 01:35:50;;;;;;;3.80;3.40;;;13.20;99.90;;;;;;4973184;28;20207;-64
2022/11/09 01:38:16;;;;;;;3.70;3.40;;;13.20;99.90;;;;;;4995159;28;20192;-65
2022/11/09 01:40:42;;;;;;;3.23;3.00;;;13.10;99.90;;;;;;5003635;28;20234;-63
2022/11/09 01:43:21;;;;;;;3.67;3.30;;;13.30;99.90;;;;;;4992741;28;20282;-62
2022/11/09 01:45:59;;;;;;;4.30;3.60;;;13.40;99.90;;;;;;4996407;28;20206;-63
2022/11/09 01:48:40;;;;;;;4.50;3.05;;;13.00;99.90;;;;;;4992685;28;20202;-63
2022/11/09 01:51:33;;;;;;;5.50;3.60;;;13.20;99.90;;;;;;4989457;28;20451;-63
2022/11/09 01:54:09;;;;;;;5.85;3.42;;;13.20;99.90;;;;;;4992387;28;20667;-63
2022/11/09 01:56:35;;;;;;;4.13;3.15;;;13.30;99.90;;;;;;4994976;28;20299;-63
2022/11/09 01:59:07;;;;;;;3.90;3.10;;;13.10;99.90;;;;;;4991377;28;20278;-63
2022/11/09 02:01:34;;;;;;;3.33;3.05;;;13.00;99.90;;;;;;4998810;28;20449;-63
2022/11/09 02:04:29;;;;;;;4.78;4.03;;;13.20;99.90;;;;;;5000768;28;20242;-63
2022/11/09 02:06:57;;;;;;;6.28;3.53;;;13.50;99.90;;;;;;4990307;28;20219;-63
2022/11/09 02:09:38;;;;;;;3.80;3.50;;;13.20;99.90;;;;;;5011998;28;20222;-63
2022/11/09 02:12:05;;;;;;;4.60;3.20;;;13.30;99.90;;;;;;5011771;28;20206;-63
2022/11/09 02:14:33;;;;;;;4.20;3.40;;;13.20;99.90;;;;;;4987884;28;20198;-63
2022/11/09 02:16:58;;;;;;;3.33;3.00;;;13.10;99.90;;;;;;4989976;28;20604;-63
2022/11/09 02:19:24;;;;;;;3.30;3.00;;;13.10;99.90;;;;;;4991837;28;20223;-63
2022/11/09 02:21:50;;;;;;;4.43;3.67;;;13.40;99.90;;;;;;4991798;28;20191;-63
2022/11/09 02:24:17;;;;;;;2.93;2.60;;;13.30;99.90;;;;;;4990648;28;20202;-63
2022/11/09 02:26:47;;;;;;;3.97;3.30;;;13.40;99.90;;;;;;4991900;28;20204;-62
2022/11/09 02:29:17;;;;;;;5.32;3.30;;;13.20;99.90;;;;;;4992085;28;20688;-63
2022/11/09 02:31:47;;;;;;;6.93;3.35;;;13.60;99.90;;;;;;4987459;28;20287;-63
2022/11/09 02:34:18;;;;;;;4.65;2.88;;;13.40;99.90;;;;;;4996076;28;20262;-63
2022/11/09 02:36:44;;;;;;;3.70;3.40;;;13.60;99.90;;;;;;4993209;28;20310;-63
2022/11/09 02:39:11;;;;;;;3.58;3.22;;;13.40;99.90;;;;;;4998891;28;20193;-63
2022/11/09 02:41:51;;;;;;;4.05;3.40;;;13.50;99.90;;;;;;4981398;28;20678;-63
2022/11/09 02:44:18;;;;;;;3.67;3.00;;;13.60;99.90;;;;;;4968487;28;20192;-63
2022/11/09 02:46:44;;;;;;;6.20;3.63;;;13.60;99.90;;;;;;4992959;28;20726;-63
2022/11/09 02:49:09;;;;;;;4.07;3.60;;;13.60;99.90;;;;;;4994661;28;20223;-63
2022/11/09 02:51:35;;;;;;;4.83;3.77;;;13.60;99.90;;;;;;4993664;28;20214;-63
2022/11/09 02:54:01;;;;;;;4.95;4.45;;;13.60;99.90;;;;;;4991344;28;20192;-63
2022/11/09 02:56:27;;;;;;;3.90;3.00;;;13.50;99.90;;;;;;4992445;28;20229;-63
2022/11/09 02:58:52;;;;;;;6.23;3.10;;;13.40;99.90;;;;;;5007933;28;20190;-64
2022/11/09 03:01:18;;;;;;;3.77;3.30;;;13.50;99.90;;;;;;4990976;28;20219;-63
2022/11/09 03:03:44;;;;;;;3.60;3.20;;;13.60;99.90;;;;;;4988624;28;20230;-63
2022/11/09 03:06:09;;;;;;;6.17;3.57;;;13.80;99.90;;;;;;4990252;28;20796;-64
2022/11/09 03:08:35;;;;;;;4.53;2.83;;;13.60;99.90;;;;;;4990383;28;20832;-64
2022/11/09 03:11:01;;;;;;;3.43;3.13;;;13.50;99.90;;;;;;4994103;28;20206;-64
2022/11/09 03:13:27;;;;;;;5.80;3.43;;;13.70;99.90;;;;;;4986515;28;20481;-63
2022/11/09 03:15:53;;;;;;;3.77;3.47;;;13.60;99.90;;;;;;4988440;28;20513;-63
2022/11/09 03:18:18;;;;;;;3.00;2.50;;;13.60;99.90;;;;;;5006714;28;20199;-63
2022/11/09 03:20:44;;;;;;;3.80;3.17;;;13.70;99.90;;;;;;5006655;28;20194;-63
2022/11/09 03:23:10;;;;;;;3.10;2.90;;;13.50;99.90;;;;;;5000715;28;20214;-63
2022/11/09 03:25:36;;;;;;;2.93;2.73;;;14.20;99.90;;;;;;4993829;28;20210;-63
2022/11/09 03:28:04;;;;;;;2.83;2.63;;;14.00;99.90;;;;;;5004487;28;21026;-64
2022/11/09 03:30:30;;;;;;;3.05;2.80;;;14.00;99.90;;;;;;4997398;28;20309;-64
2022/11/09 03:33:00;;;;;;;4.70;3.30;;;13.30;99.90;;;;;;4997917;28;20294;-63
2022/11/09 03:35:26;;;;;;;3.35;3.00;;;13.60;99.90;;;;;;4996527;28;20679;-64
2022/11/09 03:37:52;;;;;;;3.50;3.20;;;14.00;99.90;;;;;;4992508;28;20563;-64
2022/11/09 03:40:18;;;;;;;3.50;3.20;;;13.90;99.90;;;;;;5000499;28;20187;-63
2022/11/09 03:42:45;;;;;;;3.77;3.47;;;13.70;99.90;;;;;;4989143;28;20206;-63
2022/11/09 03:45:12;;;;;;;4.25;3.70;;;13.60;99.90;;;;;;4992966;28;20199;-64
2022/11/09 03:47:45;;;;;;;3.78;2.90;;;13.60;99.90;;;;;;4983989;28;20683;-63
2022/11/09 03:50:12;;;;;;;3.78;3.47;;;13.60;99.90;;;;;;4990380;28;20207;-63
2022/11/09 03:52:38;;;;;;;3.80;3.40;;;13.80;99.90;;;;;;4984019;28;20667;-63
2022/11/09 03:55:05;;;;;;;4.07;3.63;;;13.40;99.90;;;;;;4989803;28;20207;-63
2022/11/09 03:57:31;;;;;;;4.63;3.25;;;13.50;99.90;;;;;;5005395;28;20486;-64
2022/11/09 03:59:56;;;;;;;5.80;4.13;;;13.30;99.90;;;;;;4991518;28;20184;-65
2022/11/09 04:02:22;;;;;;;4.70;3.87;;;13.30;99.90;;;;;;4994646;28;20326;-65
2022/11/09 04:04:48;;;;;;;3.50;3.20;;;13.10;99.90;;;;;;4984504;28;20188;-65
2022/11/09 04:07:14;;;;;;;5.30;4.10;;;13.20;99.90;;;;;;4986756;28;20443;-65
2022/11/09 04:09:40;;;;;;;4.03;3.40;;;13.20;99.90;;;;;;4987250;28;20211;-66
2022/11/09 04:12:05;;;;;;;3.87;3.53;;;13.10;99.90;;;;;;4989415;28;20199;-65
2022/11/09 04:14:31;;;;;;;5.13;4.10;;;12.60;99.90;;;;;;4985134;28;20187;-65
2022/11/09 04:16:57;;;;;;;4.10;3.80;;;13.00;99.90;;;;;;4989954;28;20215;-65
2022/11/09 04:19:22;;;;;;;6.03;4.30;;;13.00;99.90;;;;;;4993529;28;20671;-65
2022/11/09 04:21:48;;;;;;;4.67;4.00;;;12.90;99.90;;;;;;4990245;28;20234;-66
2022/11/09 04:24:16;;;;;;;4.40;4.10;;;12.90;99.90;;;;;;4986372;28;20183;-64
2022/11/09 04:26:41;;;;;;;4.72;4.22;;;12.70;99.90;;;;;;4987005;28;20461;-65
2022/11/09 04:29:07;;;;;;;5.43;4.63;;;12.70;99.90;;;;;;4986910;28;20222;-66
2022/11/09 04:31:32;;;;;;;4.70;4.30;;;12.60;99.90;;;;;;4988572;28;20196;-62
2022/11/09 04:33:58;;;;;;;7.80;4.20;;;12.40;99.90;;;;;;4985324;28;20202;-61
2022/11/09 04:36:24;;;;;;;4.83;4.33;;;12.60;99.90;;;;;;4994248;28;20241;-63
2022/11/09 04:38:50;;;;;;;5.37;4.20;;;12.40;99.90;;;;;;4993448;28;21128;-62
2022/11/09 04:41:16;;;;;;;4.60;4.30;;;12.40;99.90;;;;;;4993465;28;20191;-62
2022/11/09 04:43:41;;;;;;;4.80;4.30;;;12.50;99.90;;;;;;4990546;28;20982;-62
2022/11/09 04:46:07;;;;;;;5.20;4.70;;;12.70;99.90;;;;;;4993751;28;20211;-62
2022/11/09 04:48:33;;;;;;;6.43;5.30;;;12.40;99.90;;;;;;4994849;28;20273;-62
2022/11/09 04:51:07;;;;;;;5.50;5.00;;;12.80;99.90;;;;;;4992774;28;20442;-62
2022/11/09 04:53:34;;;;;;;5.00;4.50;;;12.50;99.90;;;;;;4990101;28;20442;-62
2022/11/09 04:55:59;;;;;;;4.75;3.80;;;12.50;99.90;;;;;;4991904;28;20253;-62
2022/11/09 04:58:25;;;;;;;4.80;4.20;;;12.60;99.90;;;;;;4993636;28;20691;-62
2022/11/09 05:00:52;;;;;;;4.95;3.75;;;12.90;99.90;;;;;;4993478;28;20191;-62
2022/11/09 05:03:18;;;;;;;4.97;3.70;;;12.60;99.90;;;;;;4993325;28;20601;-62
2022/11/09 05:05:43;;;;;;;4.70;3.87;;;12.60;99.90;;;;;;4990915;28;20786;-62
2022/11/09 05:08:09;;;;;;;5.03;4.27;;;12.60;99.90;;;;;;4993656;28;20790;-62
2022/11/09 05:10:35;;;;;;;4.60;4.03;;;12.60;99.90;;;;;;4988877;28;20684;-62
2022/11/09 05:13:06;;;;;;;5.88;4.55;;;12.60;99.90;;;;;;4988483;28;20983;-62
2022/11/09 05:15:33;;;;;;;5.53;4.95;;;12.60;99.90;;;;;;4995134;28;20266;-62
2022/11/09 05:18:00;;;;;;;4.68;4.28;;;12.80;99.90;;;;;;4993502;28;20242;-62
2022/11/09 05:20:27;;;;;;;5.18;4.70;;;12.60;99.90;;;;;;4989832;28;20724;-65
2022/11/09 05:25:37;;;;;;;5.05;4.55;;;12.50;99.90;;;;;;4993679;28;20265;-67
2022/11/09 05:28:03;;;;;;;5.50;4.70;;;12.60;99.90;;;;;;4991885;28;20187;-68
2022/11/09 05:30:28;;;;;;;4.83;4.33;;;12.60;99.90;;;;;;4995995;28;20218;-69
2022/11/09 05:32:54;;;;;;;5.77;5.27;;;12.40;99.90;;;;;;4991664;28;20458;-68
2022/11/09 05:35:19;;;;;;;5.47;4.60;;;12.50;99.90;;;;;;4993723;28;20223;-72
2022/11/09 05:37:47;;;;;;;5.10;4.60;;;12.50;99.90;;;;;;4992154;28;20191;-67
2022/11/09 05:40:13;;;;;;;5.80;5.30;;;12.70;99.90;;;;;;4990572;28;20290;-68
2022/11/09 05:42:40;;;;;;;7.60;5.13;;;12.70;99.90;;;;;;4982413;28;20277;-68
2022/11/09 05:45:10;;;;;;;8.15;4.90;;;12.80;99.90;;;;;;4992825;28;20630;-64
2022/11/09 05:47:38;;;;;;;5.70;5.18;;;12.60;99.90;;;;;;4999346;28;20193;-65
2022/11/09 05:50:04;;;;;;;4.80;4.40;;;12.60;99.90;;;;;;4992346;28;20203;-63
2022/11/09 05:52:30;;;;;;;5.68;4.93;;;12.80;99.90;;;;;;4995972;28;20208;-63
2022/11/09 05:54:56;;;;;;;5.83;5.30;;;12.60;99.90;;;;;;5004193;28;20282;-64
2022/11/09 05:57:21;;;;;;;7.00;5.67;;;12.90;99.90;;;;;;4992851;28;20661;-64
2022/11/09 05:59:47;;;;;;;7.63;5.87;;;12.70;99.90;;;;;;4978588;28;20550;-69
2022/11/09 06:02:13;;;;;;;7.03;5.27;;;12.60;99.90;;;;;;4989031;28;20188;-70
2022/11/09 06:04:38;;;;;;;7.00;6.37;;;12.50;99.90;;;;;;4989574;28;20196;-64
2022/11/09 06:07:04;;;;;;;8.00;6.10;;;12.50;99.90;;;;;;4996805;28;20207;-61
2022/11/09 06:09:29;;;;;;;6.73;5.90;;;12.60;99.90;;;;;;4993780;28;20219;-63
2022/11/09 06:11:55;;;;;;;4.73;4.33;;;12.50;99.90;;;;;;4993368;28;20259;-63
2022/11/09 06:14:21;;;;;;;6.90;5.30;;;12.30;99.90;;;;;;4989480;28;20246;-63
2022/11/09 06:16:47;;;;;;;5.40;4.90;;;12.70;99.90;;;;;;4991676;28;20814;-63
2022/11/09 06:19:12;;;;;;;4.70;4.30;;;12.90;99.90;;;;;;4986447;28;20187;-63
2022/11/09 06:21:38;;;;;;;4.90;4.50;;;12.60;99.90;;;;;;4995143;28;20186;-63
2022/11/09 06:24:04;;;;;;;6.93;4.50;;;12.60;99.90;;;;;;4990302;28;20190;-63
2022/11/09 06:26:29;;;;;;;5.20;4.70;;;12.90;99.90;;;;;;4986247;28;20195;-63
2022/11/09 06:28:55;;;;;;;4.80;4.40;;;12.60;99.90;;;;;;4992287;28;20278;-63
2022/11/09 06:31:21;;;;;;;6.40;5.00;;;12.90;99.90;;;;;;4993665;28;20568;-63
2022/11/09 06:33:47;;;;;;;5.17;4.77;;;12.70;99.90;;;;;;4987294;28;20263;-63
2022/11/09 06:36:12;;;;;;;6.37;4.80;;;12.70;99.90;;;;;;4987438;28;20571;-63
2022/11/09 06:38:39;;;;;;;6.80;4.30;;;12.40;99.90;;;;;;4989686;28;20191;-63
2022/11/09 06:41:05;;;;;;;6.18;4.85;;;12.60;99.90;;;;;;4988904;28;20187;-62
2022/11/09 06:43:30;;;;;;;5.57;4.60;;;13.00;99.90;;;;;;4992635;28;20179;-65
2022/11/09 06:45:56;;;;;;;4.57;4.17;;;12.90;99.90;;;;;;4988487;28;20470;-65
2022/11/09 06:48:22;;;;;;;6.70;6.10;;;12.80;99.90;;;;;;4989693;28;20195;-65
2022/11/09 06:50:47;;;;;;;6.23;5.40;;;12.60;99.90;;;;;;4988536;28;20188;-63
2022/11/09 06:53:15;;;;;;;7.03;5.17;;;12.60;99.90;;;;;;4990197;28;20961;-63
2022/11/09 06:55:40;;;;;;;6.28;4.22;;;12.40;99.90;;;;;;4990922;28;20207;-70
2022/11/09 06:58:08;;;;;;;7.37;5.70;;;12.50;99.90;;;;;;4992952;28;20209;-67
2022/11/09 07:03:13;;;;;;;6.05;5.45;;;12.90;99.90;;;;;;4987449;28;20289;-81
2022/11/09 07:05:39;;;;;;;4.63;4.13;;;12.80;99.90;;;;;;4988208;28;20192;-82
2022/11/09 07:08:04;;;;;;;5.30;4.80;;;12.90;99.90;;;;;;4997214;28;20199;-83
2022/11/09 07:10:30;;;;;;;5.33;4.87;;;12.90;99.90;;;;;;4985337;28;20219;-79
2022/11/09 07:12:57;;;;;;;7.17;5.20;;;13.30;99.90;;;;;;4985932;28;20727;-78
2022/11/09 07:15:23;;;;;;;5.75;5.25;;;13.40;99.90;;;;;;4994359;28;20186;-82
2022/11/09 07:17:48;;;;;;;6.30;5.80;;;13.10;99.90;;;;;;4970098;28;20267;-92
2022/11/09 07:20:14;;;;;;;6.70;5.93;;;13.10;99.90;;;;;;4986953;28;20354;-85
2022/11/09 07:22:40;;;;;;;5.93;5.30;;;12.80;99.90;;;;;;4989962;28;20211;-85
2022/11/09 07:25:07;;;;;;;5.25;4.75;;;13.10;99.90;;;;;;4990385;28;20438;-84
2022/11/09 07:27:34;;;;;;;5.30;4.40;;;13.00;99.90;;;;;;4971387;28;20338;-86
2022/11/09 07:29:59;;;;;;;7.38;4.97;;;13.50;99.90;;;;;;4987910;28;20216;-85
2022/11/09 07:32:25;;;;;;;4.70;4.30;;;13.10;99.90;;;;;;4972023;28;20229;-84
2022/11/09 07:34:50;;;;;;;4.80;4.30;;;13.00;99.90;;;;;;4992132;28;20188;-92
2022/11/09 07:37:16;;;;;;;3.10;2.80;;;13.40;99.90;;;;;;4982879;28;20195;-92
2022/11/09 07:39:42;;;;;;;4.22;2.60;;;13.60;99.90;;;;;;4977228;28;20187;-90
2022/11/09 07:42:07;;;;;;;2.40;2.20;;;13.50;99.90;;;;;;4986271;28;20222;-90
2022/11/09 07:44:33;;;;;;;3.00;2.40;;;12.70;99.90;;;;;;4988818;28;20226;-93
2022/11/09 07:46:59;;;;;;;2.90;2.60;;;13.50;99.90;;;;;;4979306;28;20600;-93
2022/11/09 07:49:24;;;;;;;2.83;2.53;;;13.50;99.90;;;;;;4989128;28;20203;-82
2022/11/09 07:51:50;;;;;;;3.50;2.80;;;13.70;99.90;;;;;;4988322;28;20297;-84
2022/11/09 07:54:15;;;;;;;4.00;3.60;;;13.40;99.90;;;;;;4987818;28;20180;-83
2022/11/09 07:56:41;;;;;;;4.47;3.73;;;12.80;99.90;;;;;;4989000;28;20561;-83
2022/11/09 07:59:06;;;;;;;3.93;3.50;;;13.30;99.90;;;;;;4989422;28;20249;-82
2022/11/09 08:01:32;;;;;;;4.47;4.07;;;13.70;99.90;;;;;;4988870;28;20219;-84
2022/11/09 08:03:57;;;;;;;6.00;4.30;;;13.90;99.90;;;;;;4988704;28;20645;-84
2022/11/09 08:06:26;;;;;;;4.13;3.73;;;13.70;99.90;;;;;;4988786;28;20194;-82
2022/11/09 08:08:53;;;;;;;4.03;3.60;;;13.60;99.90;;;;;;4993637;28;20234;-82
2022/11/09 08:11:18;;;;;;;4.05;3.75;;;13.60;99.90;;;;;;4990083;28;20195;-81
2022/11/09 08:13:44;;;;;;;4.27;3.83;;;13.70;99.90;;;;;;4986342;28;20194;-81
2022/11/09 08:16:10;;;;;;;4.30;3.40;;;13.50;99.90;;;;;;4972477;28;20651;-80
2022/11/09 08:18:35;;;;;;;4.10;3.80;;;13.70;99.90;;;;;;4991479;28;20506;-83
2022/11/09 08:21:03;;;;;;;5.00;4.43;;;13.50;99.90;;;;;;4990992;28;20194;-83
2022/11/09 08:23:28;;;;;;;4.53;4.10;;;13.50;99.90;;;;;;4977332;28;20206;-83
2022/11/09 08:25:54;;;;;;;4.80;3.13;;;13.40;99.90;;;;;;4978461;28;20674;-82
2022/11/09 08:28:19;;;;;;;4.70;3.97;;;13.60;99.90;;;;;;4988973;28;20529;-84
2022/11/09 08:30:57;;;;;;;3.83;3.53;;;13.70;99.90;;;;;;4992582;28;20564;-83
2022/11/09 08:33:23;;;;;;;5.75;3.25;;;13.60;99.90;;;;;;4987806;28;20275;-82
2022/11/09 08:35:48;;;;;;;5.45;4.00;;;14.20;99.90;;;;;;4972873;28;20282;-85
2022/11/09 08:38:14;;;;;;;4.83;3.90;;;14.30;99.90;;;;;;4977322;28;20696;-83
2022/11/09 08:40:39;;;;;;;4.60;3.87;;;14.40;99.90;;;;;;4991778;28;20727;-83
2022/11/09 08:43:07;;;;;;;4.47;3.93;;;14.10;99.90;;;;;;5004087;28;20252;-83
2022/11/09 08:45:34;;;;;;;3.53;3.22;;;13.90;99.90;;;;;;4970728;28;20214;-83
2022/11/09 08:48:01;;;;;;;3.45;2.90;;;14.00;99.90;;;;;;4974509;28;20734;-85
2022/11/09 08:50:28;;;;;;;3.67;3.20;;;14.50;99.90;;;;;;4973273;28;20211;-81
2022/11/09 08:52:54;;;;;;;4.80;3.03;;;14.10;99.90;;;;;;4991158;28;20214;-82
2022/11/09 08:55:20;;;;;;;3.53;3.23;;;14.10;99.90;;;;;;4991059;28;20184;-86
2022/11/09 08:57:45;;;;;;;3.60;2.83;;;13.90;99.90;;;;;;4981496;28;20205;-87
2022/11/09 09:00:12;;;;;;;3.00;2.70;;;14.00;99.90;;;;;;4995678;28;20656;-89
2022/11/09 09:02:37;;;;;;;3.63;2.25;;;14.10;99.90;;;;;;4972567;28;20229;-84
2022/11/09 09:05:03;;;;;;;4.23;2.77;;;14.30;99.90;;;;;;4987946;28;20196;-84
2022/11/09 09:07:29;;;;;;;2.00;1.90;;;14.30;99.90;;;;;;4988236;28;20215;-90
2022/11/09 09:09:54;;;;;;;2.90;2.10;;;14.40;99.90;;;;;;4969753;28;20233;-83
2022/11/09 09:12:20;;;;;;;1.87;1.67;;;14.60;99.90;;;;;;4973906;28;20196;-86
2022/11/09 09:14:46;;;;;;;2.90;1.93;;;14.10;99.90;;;;;;4973630;28;20184;-86
2022/11/09 09:17:11;;;;;;;1.90;1.80;;;14.00;99.90;;;;;;4970219;28;20183;-82
2022/11/09 09:19:37;;;;;;;2.20;1.57;;;13.90;99.90;;;;;;4988122;28;20266;-86
2022/11/09 09:22:02;;;;;;;2.13;1.93;;;14.30;99.90;;;;;;4977253;28;20203;-86
2022/11/09 09:24:28;;;;;;;3.33;1.70;;;14.40;99.90;;;;;;4983705;28;20184;-83
2022/11/09 09:26:54;;;;;;;7.30;5.20;;;14.60;99.90;;;;;;4971247;28;20721;-83
2022/11/09 09:29:19;;;;;;;3.10;1.90;;;14.40;99.90;;;;;;4987526;28;20203;-82
2022/11/09 09:31:45;;;;;;;2.63;1.53;;;14.80;99.90;;;;;;4989581;28;20997;-81
2022/11/09 09:34:11;;;;;;;1.70;1.60;;;14.60;99.90;;;;;;4972941;28;20208;-81
2022/11/09 09:36:37;;;;;;;1.80;1.60;;;14.80;99.90;;;;;;4989526;28;20242;-81
2022/11/09 09:39:03;;;;;;;1.45;1.35;;;14.70;99.90;;;;;;4980097;28;20447;-81
2022/11/09 09:41:55;;;;;;;3.57;1.83;;;14.90;99.90;;;;;;5000238;28;20210;-81
2022/11/09 09:44:50;;;;;;;1.55;1.45;;;14.80;99.90;;;;;;4994820;28;20418;-81
2022/11/09 09:47:35;;;;;;;2.50;2.00;;;14.80;99.90;;;;;;4987678;28;20898;-82
2022/11/09 09:50:11;;;;;;;3.25;1.73;;;15.00;99.90;;;;;;4949925;28;20223;-81
2022/11/09 09:52:42;;;;;;;1.30;1.20;;;14.70;99.90;;;;;;4964998;28;20209;-80
2022/11/09 09:55:10;;;;;;;3.35;2.40;;;15.10;99.90;;;;;;4982744;28;20191;-81
2022/11/09 09:57:36;;;;;;;2.35;2.17;;;15.50;99.90;;;;;;4989955;28;20237;-80
2022/11/09 10:00:06;;;;;;;3.07;1.83;;;15.40;99.90;;;;;;4994183;28;20692;-81
2022/11/09 10:02:35;;;;;;;2.13;1.90;;;15.50;99.90;;;;;;4977170;28;20478;-81
2022/11/09 10:05:06;;;;;;;1.77;1.67;;;15.50;99.90;;;;;;4988702;28;20272;-81
2022/11/09 10:08:09;;;;;;;3.35;2.20;;;15.60;99.90;;;;;;4985461;28;20191;-82
2022/11/09 10:11:15;;;;;;;2.95;1.98;;;15.50;99.90;;;;;;4980890;28;20354;-89
2022/11/09 10:14:13;;;;;;;4.05;2.25;;;15.50;99.90;;;;;;4974547;28;20183;-85
2022/11/09 10:16:47;;;;;;;2.80;2.03;;;15.70;99.90;;;;;;4988242;28;20206;-84
2022/11/09 10:19:29;;;;;;;3.75;2.50;;;15.80;99.90;;;;;;4996419;28;20566;-88
2022/11/09 10:22:07;;;;;;;2.00;1.80;;;15.20;99.90;;;;;;4985975;28;20211;-86
2022/11/09 10:24:58;;;;;;;2.28;1.70;;;15.50;99.90;;;;;;4967115;28;20553;-85
2022/11/09 10:27:36;;;;;;;2.35;1.90;;;15.80;99.90;;;;;;4969584;28;20187;-86
2022/11/09 10:30:11;;;;;;;2.10;2.00;;;16.00;99.90;;;;;;4989546;28;20211;-87
2022/11/09 10:32:37;;;;;;;2.40;2.20;;;16.30;99.90;;;;;;4978034;28;20683;-88
2022/11/09 10:35:12;;;;;;;2.00;1.80;;;16.10;99.90;;;;;;4984875;28;20187;-89
2022/11/09 10:37:47;;;;;;;3.90;2.80;;;16.30;99.90;;;;;;4972016;28;21038;-85
2022/11/09 10:40:33;;;;;;;6.97;6.00;;;16.40;99.90;;;;;;4962624;28;20183;-86
2022/11/09 10:43:01;;;;;;;3.20;2.35;;;16.90;99.90;;;;;;4971051;28;20210;-86
2022/11/09 10:45:43;;;;;;;2.60;2.15;;;16.60;99.90;;;;;;4983661;28;20682;-85
2022/11/09 10:48:10;;;;;;;2.92;2.25;;;17.10;99.90;;;;;;4991458;28;20242;-82
2022/11/09 10:50:53;;;;;;;3.80;2.20;;;17.00;99.90;;;;;;4987860;28;20306;-90
2022/11/09 10:53:24;;;;;;;3.15;2.30;;;17.20;99.90;;;;;;4993583;28;20213;-90
2022/11/09 10:55:55;;;;;;;4.63;2.38;;;17.50;99.90;;;;;;4984129;28;20216;-87
2022/11/09 10:58:44;;;;;;;3.88;2.28;;;18.00;99.90;;;;;;4975646;28;20278;-89
2022/11/09 11:01:22;;;;;;;2.90;2.60;;;17.20;99.90;;;;;;4977814;28;20270;-80
2022/11/09 11:03:53;;;;;;;3.65;2.70;;;17.10;99.90;;;;;;4981170;28;20222;-80
2022/11/09 11:06:21;;;;;;;3.58;2.75;;;17.40;99.90;;;;;;4986061;28;20195;-81
2022/11/09 11:09:04;;;;;;;3.45;3.15;;;17.30;99.90;;;;;;4988583;28;20262;-83
2022/11/09 11:11:31;;;;;;;2.85;2.20;;;17.00;99.90;;;;;;4969040;28;20199;-79
2022/11/09 11:14:12;;;;;;;2.47;2.08;;;17.10;99.90;;;;;;4987702;28;20279;-79
2022/11/09 11:16:39;;;;;;;2.50;2.30;;;17.10;99.90;;;;;;4981674;28;20543;-82
2022/11/09 11:19:05;;;;;;;3.35;2.55;;;17.70;99.90;;;;;;4982680;28;20183;-80
2022/11/09 11:21:30;;;;;;;3.23;2.20;;;17.50;99.90;;;;;;4972490;28;20214;-79
2022/11/09 11:24:17;;;;;;;2.50;2.30;;;17.20;99.90;;;;;;4987204;28;21002;-81
2022/11/09 11:26:46;;;;;;;2.40;2.20;;;17.40;99.90;;;;;;4989493;28;20538;-83
2022/11/09 11:29:29;;;;;;;4.97;2.78;;;17.50;99.90;;;;;;4988273;28;20629;-84
2022/11/09 11:31:55;;;;;;;2.75;2.55;;;17.40;99.90;;;;;;4990289;28;20230;-82
2022/11/09 11:34:21;;;;;;;1.80;1.70;;;17.90;99.90;;;;;;4989407;28;20183;-83
2022/11/09 11:37:22;;;;;;;4.53;3.93;;;18.30;99.90;;;;;;4987600;28;20258;-87
2022/11/09 11:40:02;;;;;;;3.20;2.47;;;17.30;99.90;;;;;;4977801;28;20517;-86
2022/11/09 11:42:52;;;;;;;2.20;2.00;;;17.40;99.90;;;;;;4989205;28;20207;-86
2022/11/09 11:45:39;;;;;;;2.10;2.00;;;17.20;99.90;;;;;;4982537;28;20188;-86
2022/11/09 11:48:42;;;;;;;3.05;2.13;;;17.30;99.90;;;;;;4988927;28;20184;-86
2022/11/09 11:51:24;;;;;;;3.22;2.00;;;17.20;99.90;;;;;;4989695;28;20202;-84
2022/11/09 11:54:08;;;;;;;2.58;1.90;;;17.10;99.90;;;;;;4988993;28;20194;-86
2022/11/09 11:56:39;;;;;;;1.88;1.77;;;17.00;99.90;;;;;;4989951;28;20192;-84
2022/11/09 11:59:13;;;;;;;2.65;2.30;;;17.20;99.90;;;;;;4984416;28;20192;-84
2022/11/09 12:01:38;;;;;;;3.75;2.10;;;17.50;99.90;;;;;;4969007;28;20219;-87
2022/11/09 12:04:30;;;;;;;2.13;1.93;;;17.20;99.90;;;;;;4966213;28;20791;-84
2022/11/09 12:07:25;;;;;;;2.38;2.17;;;17.30;99.90;;;;;;4987804;28;20183;-80
2022/11/09 12:10:12;;;;;;;2.42;2.22;;;17.40;99.90;;;;;;4986801;28;20234;-81
2022/11/09 12:12:55;;;;;;;3.72;2.90;;;17.30;99.90;;;;;;4993374;28;20245;-84
2022/11/09 12:15:23;;;;;;;3.75;3.00;;;17.40;99.90;;;;;;4986546;28;20184;-81
2022/11/09 12:18:00;;;;;;;4.53;2.03;;;17.20;99.90;;;;;;4987137;28;20172;-83
2022/11/09 12:20:46;;;;;;;4.05;2.10;;;17.10;99.90;;;;;;4964525;28;20191;-86
2022/11/09 12:23:39;;;;;;;3.58;2.10;;;17.30;99.90;;;;;;4985358;28;20199;-86
2022/11/09 12:26:14;;;;;;;5.03;4.57;;;17.20;99.90;;;;;;4988038;28;20183;-85
2022/11/09 12:29:05;;;;;;;3.05;2.00;;;17.30;99.90;;;;;;5011803;28;20233;-83
2022/11/09 12:31:47;;;;;;;3.28;2.10;;;17.30;99.90;;;;;;4986659;28;20192;-83
2022/11/09 12:34:26;;;;;;;1.73;1.63;;;17.00;99.90;;;;;;4973891;28;20190;-82
2022/11/09 12:36:59;;;;;;;2.17;1.92;;;17.30;99.90;;;;;;4986340;28;20183;-80
2022/11/09 12:39:45;;;;;;;2.20;2.00;;;17.30;99.90;;;;;;4960980;28;20549;-78
2022/11/09 12:42:32;;;;;;;2.42;2.00;;;17.60;99.90;;;;;;4986911;28;20214;-78
2022/11/09 12:45:06;;;;;;;2.13;1.85;;;17.70;99.90;;;;;;4986450;28;20257;-76
2022/11/09 12:47:41;;;;;;;1.98;1.88;;;17.20;99.90;;;;;;4987453;28;20294;-77
2022/11/09 12:50:18;;;;;;;2.00;1.90;;;17.60;99.90;;;;;;4970775;28;20203;-77
2022/11/09 12:52:46;;;;;;;2.58;2.10;;;17.40;99.90;;;;;;4988519;28;20203;-77
2022/11/09 12:55:21;;;;;;;2.17;1.92;;;17.70;99.90;;;;;;4988370;28;20665;-79
2022/11/09 12:57:47;;;;;;;5.07;4.55;;;17.50;99.90;;;;;;4988047;28;20192;-78
2022/11/09 13:00:34;;;;;;;2.43;2.23;;;17.60;99.90;;;;;;4986266;28;20191;-78
2022/11/09 13:03:05;;;;;;;2.53;2.33;;;17.70;99.90;;;;;;4990817;28;20215;-78
2022/11/09 13:05:38;;;;;;;2.45;2.15;;;17.50;99.90;;;;;;4983639;28;20283;-77